Time;durP1;ratioP1;P1;durP2;ratioP2;P2;SDS_P1;SDS_P2;PMS_P1;PMS_P2;Temp;Humidity;BMP_temperature;BMP_pressure;BME280_temperature;BME280_humidity;BME280_pressure;Samples;Min_cycle;Max_cycle;Signal;HPM_P1;HPM_P2
2023/11/15 00:01:58;;;;;;;0.93;0.70;;;10.20;99.90;;;;;;5046768;28;20216;-76
2023/11/15 00:04:23;;;;;;;3.17;0.80;;;10.20;99.90;;;;;;5057389;28;20217;-76
2023/11/15 00:06:49;;;;;;;2.33;0.83;;;10.20;99.90;;;;;;5034686;28;20715;-76
2023/11/15 00:09:15;;;;;;;1.43;0.90;;;10.20;99.90;;;;;;5084484;28;20720;-74
2023/11/15 00:11:41;;;;;;;3.77;1.13;;;10.20;99.90;;;;;;5043966;28;20227;-76
2023/11/15 00:14:07;;;;;;;0.70;0.67;;;10.20;99.90;;;;;;5066681;28;20218;-75
2023/11/15 00:16:32;;;;;;;1.20;0.70;;;10.20;99.90;;;;;;5045658;28;20212;-76
2023/11/15 00:18:58;;;;;;;1.03;0.60;;;10.20;99.90;;;;;;5031895;28;20535;-75
2023/11/15 00:21:24;;;;;;;4.93;0.90;;;10.20;99.90;;;;;;5012529;28;20264;-76
2023/11/15 00:23:50;;;;;;;1.20;0.77;;;10.20;99.90;;;;;;5031928;28;20197;-76
2023/11/15 00:26:15;;;;;;;1.63;0.80;;;10.20;99.90;;;;;;5035264;28;20738;-76
2023/11/15 00:28:50;;;;;;;0.80;0.80;;;10.20;99.90;;;;;;5076299;28;20325;-76
2023/11/15 00:31:16;;;;;;;0.80;0.70;;;10.20;99.90;;;;;;5050817;28;20455;-75
2023/11/15 00:33:42;;;;;;;0.80;0.70;;;10.20;99.90;;;;;;5047276;28;20205;-75
2023/11/15 00:36:11;;;;;;;0.73;0.63;;;10.20;99.90;;;;;;5031161;28;20221;-75
2023/11/15 00:38:38;;;;;;;1.10;0.77;;;10.20;99.90;;;;;;5034995;28;20975;-75
2023/11/15 00:41:06;;;;;;;1.70;0.63;;;10.20;99.90;;;;;;5010668;28;20460;-75
2023/11/15 00:43:32;;;;;;;1.63;0.60;;;10.20;99.90;;;;;;5046143;28;20455;-73
2023/11/15 00:45:57;;;;;;;0.40;0.30;;;10.20;99.90;;;;;;5032515;28;20525;-73
2023/11/15 00:48:24;;;;;;;0.80;0.60;;;10.20;99.90;;;;;;5012919;28;20216;-73
2023/11/15 00:50:50;;;;;;;1.47;0.60;;;10.20;99.90;;;;;;5020518;28;20212;-75
2023/11/15 00:53:16;;;;;;;0.70;0.70;;;10.20;99.90;;;;;;5033081;28;20454;-76
2023/11/15 00:55:42;;;;;;;0.90;0.63;;;10.20;99.90;;;;;;5054417;28;20219;-76
2023/11/15 00:58:09;;;;;;;0.80;0.80;;;10.20;99.90;;;;;;5059525;28;20490;-73
2023/11/15 01:00:44;;;;;;;0.50;0.50;;;10.20;99.90;;;;;;5033135;28;20473;-75
2023/11/15 01:03:25;;;;;;;1.80;0.60;;;10.20;99.90;;;;;;5073716;28;20516;-76
2023/11/15 01:05:55;;;;;;;0.93;0.70;;;10.20;99.90;;;;;;5051410;28;20495;-76
2023/11/15 01:08:25;;;;;;;0.97;0.83;;;10.20;99.90;;;;;;5040926;28;20504;-75
2023/11/15 01:10:54;;;;;;;1.13;0.60;;;10.20;99.90;;;;;;5043148;28;20455;-76
2023/11/15 01:13:21;;;;;;;0.87;0.83;;;10.20;99.90;;;;;;5058035;28;20508;-75
2023/11/15 01:15:47;;;;;;;2.50;1.27;;;10.20;99.90;;;;;;5030785;28;20455;-75
2023/11/15 01:18:13;;;;;;;2.43;0.80;;;10.20;99.90;;;;;;5064794;28;20459;-75
2023/11/15 01:20:39;;;;;;;1.10;0.90;;;10.20;99.90;;;;;;5018123;28;20454;-76
2023/11/15 01:23:06;;;;;;;1.63;1.23;;;10.20;99.90;;;;;;5027525;28;20530;-74
2023/11/15 01:25:32;;;;;;;2.00;0.60;;;10.20;99.90;;;;;;5039560;28;20458;-76
2023/11/15 01:27:59;;;;;;;2.00;0.90;;;10.20;99.90;;;;;;5015085;28;20459;-76
2023/11/15 01:30:26;;;;;;;1.60;1.07;;;10.20;99.90;;;;;;5050393;28;20596;-75
2023/11/15 01:32:52;;;;;;;2.53;1.07;;;10.20;99.90;;;;;;5056443;28;20447;-76
2023/11/15 01:35:18;;;;;;;1.20;1.10;;;10.10;99.90;;;;;;5054743;28;20453;-76
2023/11/15 01:37:46;;;;;;;2.60;1.20;;;10.20;99.90;;;;;;5049742;28;20458;-75
2023/11/15 01:40:13;;;;;;;2.20;1.20;;;10.20;99.90;;;;;;5037011;28;20555;-76
2023/11/15 01:42:40;;;;;;;1.27;0.67;;;10.10;99.90;;;;;;5053290;28;20507;-76
2023/11/15 01:45:06;;;;;;;3.60;1.43;;;10.10;99.90;;;;;;5037457;28;20438;-76
2023/11/15 01:47:33;;;;;;;2.30;0.87;;;10.10;99.90;;;;;;5052093;28;20451;-75
2023/11/15 01:50:00;;;;;;;1.57;0.90;;;10.10;99.90;;;;;;5042848;28;20453;-74
2023/11/15 01:52:27;;;;;;;2.73;0.67;;;10.10;99.90;;;;;;5073087;28;20453;-76
2023/11/15 01:54:56;;;;;;;2.60;0.60;;;10.10;99.90;;;;;;5050423;28;20449;-76
2023/11/15 01:57:22;;;;;;;1.40;0.80;;;10.10;99.90;;;;;;5042069;28;20461;-75
2023/11/15 01:59:49;;;;;;;0.80;0.63;;;10.20;99.90;;;;;;5036644;28;20472;-76
2023/11/15 02:02:15;;;;;;;1.27;0.70;;;10.20;99.90;;;;;;5041691;28;20442;-75
2023/11/15 02:04:41;;;;;;;3.43;1.20;;;10.20;99.90;;;;;;5058599;28;20986;-76
2023/11/15 02:07:08;;;;;;;0.87;0.87;;;10.20;99.90;;;;;;5034370;28;20653;-76
2023/11/15 02:09:35;;;;;;;3.23;1.20;;;10.20;99.90;;;;;;5052757;28;20217;-76
2023/11/15 02:12:02;;;;;;;0.73;0.70;;;10.20;99.90;;;;;;5060641;28;20453;-75
2023/11/15 02:14:30;;;;;;;1.90;0.90;;;10.20;99.90;;;;;;5069421;28;20457;-76
2023/11/15 02:16:56;;;;;;;2.37;0.80;;;10.20;99.90;;;;;;5058033;28;20460;-75
2023/11/15 02:19:21;;;;;;;2.33;0.73;;;10.30;99.90;;;;;;5052901;28;20556;-75
2023/11/15 02:21:48;;;;;;;5.23;0.90;;;10.30;99.90;;;;;;5059657;28;20307;-76
2023/11/15 02:24:14;;;;;;;4.50;2.20;;;10.20;99.90;;;;;;5053853;28;20902;-76
2023/11/15 02:26:40;;;;;;;1.83;0.70;;;10.30;99.90;;;;;;5035078;28;20224;-75
2023/11/15 02:29:05;;;;;;;1.47;1.00;;;10.20;99.90;;;;;;5027734;28;20220;-75
2023/11/15 02:31:34;;;;;;;0.60;0.60;;;10.20;99.90;;;;;;5037103;28;20216;-76
2023/11/15 02:34:00;;;;;;;0.97;0.60;;;10.20;99.90;;;;;;5045003;28;20209;-76
2023/11/15 02:36:27;;;;;;;3.17;0.83;;;10.20;99.90;;;;;;5059073;28;20478;-75
2023/11/15 02:38:53;;;;;;;3.60;0.80;;;10.20;99.90;;;;;;5027111;28;20244;-75
2023/11/15 02:41:19;;;;;;;4.20;1.27;;;10.10;99.90;;;;;;5032229;28;20493;-76
2023/11/15 02:43:44;;;;;;;1.13;1.03;;;10.10;99.90;;;;;;5029654;28;20228;-75
2023/11/15 02:46:10;;;;;;;2.17;0.97;;;10.10;99.90;;;;;;5061485;28;20252;-75
2023/11/15 02:48:35;;;;;;;1.70;0.70;;;10.10;99.90;;;;;;5024458;28;20205;-75
2023/11/15 02:51:01;;;;;;;5.60;1.43;;;10.10;99.90;;;;;;5014955;28;20311;-75
2023/11/15 02:53:27;;;;;;;0.97;0.73;;;10.10;99.90;;;;;;5052034;28;20212;-76
2023/11/15 02:55:52;;;;;;;2.73;0.80;;;10.00;99.90;;;;;;5025826;28;20229;-75
2023/11/15 02:58:18;;;;;;;2.60;0.77;;;10.00;99.90;;;;;;5027850;28;20224;-75
2023/11/15 03:00:44;;;;;;;2.03;0.80;;;10.00;99.90;;;;;;5029885;28;20220;-76
2023/11/15 03:03:12;;;;;;;7.70;1.20;;;10.00;99.90;;;;;;5029536;28;20217;-76
2023/11/15 03:05:38;;;;;;;2.00;0.70;;;10.00;99.90;;;;;;5031686;28;20460;-76
2023/11/15 03:08:05;;;;;;;2.13;0.77;;;10.00;99.90;;;;;;5010967;28;20513;-76
2023/11/15 03:10:32;;;;;;;3.00;0.93;;;10.00;99.90;;;;;;5048240;28;20228;-75
2023/11/15 03:12:58;;;;;;;0.67;0.50;;;9.90;99.90;;;;;;5016317;28;20475;-76
2023/11/15 03:15:24;;;;;;;1.83;1.00;;;9.90;99.90;;;;;;5035147;28;20483;-75
2023/11/15 03:17:50;;;;;;;1.00;1.00;;;9.90;99.90;;;;;;5054274;28;20506;-76
2023/11/15 03:20:15;;;;;;;0.80;0.70;;;9.90;99.90;;;;;;5055714;28;20234;-76
2023/11/15 03:22:41;;;;;;;0.70;0.70;;;9.90;99.90;;;;;;5032046;28;20215;-76
2023/11/15 03:25:07;;;;;;;0.50;0.50;;;9.90;99.90;;;;;;5041568;28;20224;-75
2023/11/15 03:27:33;;;;;;;1.13;0.70;;;9.90;99.90;;;;;;5016345;28;20243;-75
2023/11/15 03:29:58;;;;;;;0.60;0.60;;;9.90;99.90;;;;;;5043444;28;20225;-76
2023/11/15 03:32:24;;;;;;;0.60;0.50;;;9.90;99.90;;;;;;5034505;28;20212;-75
2023/11/15 03:34:50;;;;;;;2.70;0.80;;;10.00;99.90;;;;;;5022557;28;20228;-75
2023/11/15 03:37:16;;;;;;;1.57;1.00;;;10.00;99.90;;;;;;5031930;28;21070;-75
2023/11/15 03:39:41;;;;;;;1.23;1.10;;;10.00;99.90;;;;;;5025652;28;20258;-76
2023/11/15 03:42:07;;;;;;;1.13;0.70;;;10.00;99.90;;;;;;5043052;28;20708;-75
2023/11/15 03:44:33;;;;;;;3.17;0.73;;;10.00;99.90;;;;;;5051575;28;20218;-76
2023/11/15 03:46:59;;;;;;;0.70;0.70;;;10.00;99.90;;;;;;5046629;28;20578;-76
2023/11/15 03:49:25;;;;;;;0.80;0.60;;;10.00;99.90;;;;;;5050834;28;20219;-75
2023/11/15 03:51:50;;;;;;;3.03;0.83;;;10.00;99.90;;;;;;5073439;28;20457;-76
2023/11/15 03:54:16;;;;;;;2.20;0.77;;;10.00;99.90;;;;;;5037483;28;20232;-75
2023/11/15 03:56:42;;;;;;;0.97;0.87;;;10.00;99.90;;;;;;5045355;28;20208;-75
2023/11/15 03:59:08;;;;;;;2.20;0.60;;;10.00;99.90;;;;;;5051930;28;20235;-75
2023/11/15 04:01:33;;;;;;;0.70;0.70;;;10.00;99.90;;;;;;5042417;28;20543;-75
2023/11/15 04:03:59;;;;;;;1.17;0.80;;;10.00;99.90;;;;;;5054711;28;20751;-76
2023/11/15 04:06:27;;;;;;;0.90;0.80;;;10.00;99.90;;;;;;5051346;28;20243;-74
2023/11/15 04:08:56;;;;;;;1.37;0.93;;;10.00;99.90;;;;;;5070164;28;20807;-76
2023/11/15 04:11:21;;;;;;;1.00;0.70;;;10.00;99.90;;;;;;5053048;28;20458;-76
2023/11/15 04:13:48;;;;;;;0.80;0.70;;;10.00;99.90;;;;;;5024709;28;20475;-75
2023/11/15 04:16:14;;;;;;;1.00;0.63;;;10.00;99.90;;;;;;5036805;28;20453;-75
2023/11/15 04:18:40;;;;;;;3.03;0.90;;;10.00;99.90;;;;;;5028243;28;20455;-76
2023/11/15 04:21:06;;;;;;;4.00;0.70;;;10.00;99.90;;;;;;5036034;28;20223;-75
2023/11/15 04:23:31;;;;;;;1.77;0.70;;;10.00;99.90;;;;;;5027914;28;20220;-76
2023/11/15 04:25:58;;;;;;;4.00;1.07;;;10.00;99.90;;;;;;5060697;28;20508;-76
2023/11/15 04:28:24;;;;;;;5.47;0.90;;;10.00;99.90;;;;;;5068160;28;20462;-75
2023/11/15 04:30:50;;;;;;;1.33;0.80;;;10.00;99.90;;;;;;5049189;28;20253;-76
2023/11/15 04:33:15;;;;;;;2.00;1.10;;;9.90;99.90;;;;;;5067539;28;20458;-76
2023/11/15 04:35:41;;;;;;;4.33;1.13;;;9.90;99.90;;;;;;5069107;28;20255;-75
2023/11/15 04:38:09;;;;;;;1.70;1.20;;;9.90;99.90;;;;;;5026888;28;20232;-76
2023/11/15 04:40:37;;;;;;;4.63;1.50;;;9.90;99.90;;;;;;5059407;28;20258;-76
2023/11/15 04:43:06;;;;;;;2.03;1.00;;;9.90;99.90;;;;;;5063176;28;20447;-75
2023/11/15 04:45:32;;;;;;;2.90;0.87;;;9.90;99.90;;;;;;5065336;28;20469;-76
2023/11/15 04:47:58;;;;;;;4.00;0.73;;;9.90;99.90;;;;;;5031092;28;20461;-75
2023/11/15 04:50:25;;;;;;;2.40;1.93;;;9.90;99.90;;;;;;5046839;28;20828;-75
2023/11/15 04:52:51;;;;;;;2.80;1.07;;;9.90;99.90;;;;;;5049278;28;20224;-75
2023/11/15 04:55:18;;;;;;;4.00;0.80;;;10.00;99.90;;;;;;5041401;28;20458;-75
2023/11/15 04:57:43;;;;;;;6.63;1.00;;;10.00;99.90;;;;;;5028620;28;20333;-75
2023/11/15 05:00:11;;;;;;;2.73;1.30;;;9.90;99.90;;;;;;5045935;28;20911;-75
2023/11/15 05:02:37;;;;;;;6.00;1.10;;;9.90;99.90;;;;;;5037847;28;20229;-76
2023/11/15 05:05:05;;;;;;;1.40;1.30;;;9.90;99.90;;;;;;5067408;28;20450;-75
2023/11/15 05:07:36;;;;;;;1.00;1.00;;;9.90;99.90;;;;;;5048801;28;20215;-76
2023/11/15 05:10:05;;;;;;;3.27;0.90;;;9.90;99.90;;;;;;5045007;28;23984;-76
2023/11/15 05:12:33;;;;;;;3.53;1.23;;;9.90;99.90;;;;;;5049946;28;20488;-75
2023/11/15 05:14:59;;;;;;;1.20;0.90;;;9.90;99.90;;;;;;5043510;28;20537;-75
2023/11/15 05:17:25;;;;;;;6.90;1.70;;;9.90;99.90;;;;;;5067457;28;20546;-75
2023/11/15 05:19:51;;;;;;;1.70;1.00;;;9.90;99.90;;;;;;5043543;28;20228;-75
2023/11/15 05:22:17;;;;;;;2.20;1.07;;;9.90;99.90;;;;;;5053370;28;20504;-76
2023/11/15 05:24:42;;;;;;;4.73;1.20;;;9.90;99.90;;;;;;5070288;28;20212;-76
2023/11/15 05:27:09;;;;;;;4.33;1.57;;;9.90;99.90;;;;;;5042062;28;20216;-76
2023/11/15 05:29:35;;;;;;;2.73;0.90;;;9.90;99.90;;;;;;5042884;28;20273;-75
2023/11/15 05:32:01;;;;;;;9.00;1.73;;;9.80;99.90;;;;;;5049214;28;20446;-76
2023/11/15 05:34:27;;;;;;;3.17;1.07;;;9.80;99.90;;;;;;5067620;28;20216;-76
2023/11/15 05:36:53;;;;;;;2.83;1.17;;;9.90;99.90;;;;;;5047324;28;20227;-75
2023/11/15 05:39:19;;;;;;;1.43;1.03;;;9.90;99.90;;;;;;5044284;28;20454;-75
2023/11/15 05:41:45;;;;;;;2.40;1.27;;;9.90;99.90;;;;;;5048033;28;20988;-75
2023/11/15 05:44:10;;;;;;;8.93;1.80;;;9.90;99.90;;;;;;5064786;28;20453;-75
2023/11/15 05:46:36;;;;;;;5.83;3.03;;;9.90;99.90;;;;;;5035556;28;20204;-76
2023/11/15 05:49:02;;;;;;;18.33;4.27;;;9.90;99.90;;;;;;5045185;28;21251;-75
2023/11/15 05:51:29;;;;;;;5.50;3.27;;;9.90;99.90;;;;;;5031190;28;20315;-76
2023/11/15 05:53:55;;;;;;;6.70;2.87;;;9.90;99.90;;;;;;5063266;28;20212;-75
2023/11/15 05:56:21;;;;;;;6.47;3.00;;;9.90;99.90;;;;;;5014739;28;20450;-76
2023/11/15 05:58:47;;;;;;;6.63;3.53;;;9.90;99.90;;;;;;5047317;28;20329;-76
2023/11/15 06:01:13;;;;;;;8.50;3.37;;;9.90;99.90;;;;;;5049307;28;20507;-76
2023/11/15 06:03:38;;;;;;;10.30;3.50;;;9.90;99.90;;;;;;5038454;28;20224;-75
2023/11/15 06:06:05;;;;;;;7.57;3.80;;;9.80;99.90;;;;;;5052531;28;20268;-75
2023/11/15 06:08:30;;;;;;;5.97;2.67;;;9.80;99.90;;;;;;5035324;28;20216;-75
2023/11/15 06:10:56;;;;;;;3.30;1.80;;;9.80;99.90;;;;;;5055424;28;20823;-76
2023/11/15 06:13:22;;;;;;;5.90;2.00;;;9.80;99.90;;;;;;5048522;28;20685;-76
2023/11/15 06:15:48;;;;;;;2.10;1.60;;;9.80;99.90;;;;;;5044945;28;20311;-75
2023/11/15 06:18:14;;;;;;;1.90;1.23;;;9.80;99.90;;;;;;5077144;28;20512;-74
2023/11/15 06:20:40;;;;;;;2.70;1.47;;;9.80;99.90;;;;;;5055000;28;20219;-76
2023/11/15 06:23:07;;;;;;;2.63;1.40;;;9.80;99.90;;;;;;5056898;28;20227;-76
2023/11/15 06:25:34;;;;;;;4.23;1.53;;;9.80;99.90;;;;;;5053301;28;20556;-76
2023/11/15 06:28:00;;;;;;;4.10;1.40;;;9.80;99.90;;;;;;5053828;28;21009;-75
2023/11/15 06:30:25;;;;;;;3.40;1.83;;;9.80;99.90;;;;;;5040390;28;20554;-76
2023/11/15 06:32:51;;;;;;;2.87;1.07;;;9.80;99.90;;;;;;5058714;28;20226;-76
2023/11/15 06:35:19;;;;;;;3.90;1.47;;;9.80;99.90;;;;;;5040596;28;20228;-75
2023/11/15 06:37:48;;;;;;;1.53;1.00;;;9.80;99.90;;;;;;5070879;28;20224;-76
2023/11/15 06:40:18;;;;;;;1.20;1.07;;;9.80;99.90;;;;;;5045219;28;20458;-75
2023/11/15 06:42:44;;;;;;;2.03;1.80;;;9.80;99.90;;;;;;5075488;28;20971;-76
2023/11/15 06:45:12;;;;;;;1.03;0.87;;;9.80;99.90;;;;;;5071320;28;20480;-75
2023/11/15 06:47:37;;;;;;;1.97;1.07;;;9.80;99.90;;;;;;5031217;28;20964;-76
2023/11/15 06:50:04;;;;;;;4.30;1.07;;;9.70;99.90;;;;;;5049042;28;20452;-75
2023/11/15 06:52:37;;;;;;;1.70;1.27;;;9.70;99.90;;;;;;5052887;28;20313;-76
2023/11/15 06:55:06;;;;;;;2.13;1.50;;;9.70;99.90;;;;;;5048656;28;20467;-75
2023/11/15 06:57:32;;;;;;;2.27;1.30;;;9.70;99.90;;;;;;5035837;28;20512;-75
2023/11/15 06:59:57;;;;;;;7.60;0.97;;;9.70;99.90;;;;;;5052671;28;20466;-76
2023/11/15 07:02:23;;;;;;;2.00;0.77;;;9.70;99.90;;;;;;5051529;28;20216;-75
2023/11/15 07:04:49;;;;;;;2.03;1.10;;;9.70;99.90;;;;;;5051382;28;20212;-76
2023/11/15 07:07:14;;;;;;;6.30;1.50;;;9.70;99.90;;;;;;5070732;28;20219;-75
2023/11/15 07:09:40;;;;;;;0.93;0.80;;;9.70;99.90;;;;;;5076013;28;20613;-75
2023/11/15 07:12:06;;;;;;;3.30;1.30;;;9.70;99.90;;;;;;5051952;28;20228;-74
2023/11/15 07:14:34;;;;;;;3.60;1.20;;;9.70;99.90;;;;;;5043068;28;20677;-76
2023/11/15 07:17:00;;;;;;;1.33;1.17;;;9.80;99.90;;;;;;5048184;28;20447;-76
2023/11/15 07:19:27;;;;;;;4.03;1.20;;;9.80;99.90;;;;;;5043173;28;20458;-76
2023/11/15 07:21:54;;;;;;;8.10;1.13;;;9.80;99.90;;;;;;5051834;28;20541;-75
2023/11/15 07:24:23;;;;;;;4.73;1.40;;;9.80;99.90;;;;;;5076384;28;20454;-75
2023/11/15 07:26:48;;;;;;;10.73;1.53;;;9.90;99.90;;;;;;5052250;28;21037;-76
2023/11/15 07:29:19;;;;;;;2.93;0.80;;;9.90;99.90;;;;;;5040673;28;20450;-76
2023/11/15 07:31:52;;;;;;;1.50;0.83;;;9.90;99.90;;;;;;5044566;28;20284;-76
2023/11/15 07:34:24;;;;;;;4.07;1.13;;;10.00;99.90;;;;;;5046641;28;20470;-76
2023/11/15 07:36:51;;;;;;;3.87;1.60;;;10.10;99.90;;;;;;5043895;28;20451;-76
2023/11/15 07:39:18;;;;;;;3.63;1.80;;;10.10;99.90;;;;;;5065523;28;20524;-76
2023/11/15 07:41:44;;;;;;;3.13;1.80;;;10.20;99.90;;;;;;5028827;28;20534;-76
2023/11/15 07:44:13;;;;;;;3.10;2.10;;;10.20;99.90;;;;;;5072598;28;20522;-75
2023/11/15 07:46:41;;;;;;;1.30;1.20;;;10.20;99.90;;;;;;5067239;28;20215;-76
2023/11/15 07:49:07;;;;;;;4.50;1.33;;;10.20;99.90;;;;;;5070083;28;20453;-76
2023/11/15 07:51:33;;;;;;;2.83;0.90;;;10.20;99.90;;;;;;5047766;28;20484;-76
2023/11/15 07:53:59;;;;;;;2.90;1.07;;;10.20;99.90;;;;;;5043575;28;20477;-76
2023/11/15 07:56:26;;;;;;;3.37;1.97;;;10.30;99.90;;;;;;5036585;28;20820;-76
2023/11/15 07:58:54;;;;;;;5.23;2.17;;;10.30;99.90;;;;;;5045136;28;20533;-76
2023/11/15 08:01:22;;;;;;;4.93;2.37;;;10.40;99.90;;;;;;5041115;28;20479;-76
2023/11/15 08:03:53;;;;;;;10.13;3.07;;;10.50;99.90;;;;;;5033756;28;20457;-76
2023/11/15 08:06:19;;;;;;;4.87;2.00;;;10.60;99.90;;;;;;5048300;28;20950;-76
2023/11/15 08:08:44;;;;;;;3.40;1.77;;;10.60;99.90;;;;;;5051115;28;20545;-75
2023/11/15 08:11:11;;;;;;;7.00;1.83;;;10.60;99.90;;;;;;5069680;28;20446;-75
2023/11/15 08:13:38;;;;;;;7.13;1.47;;;10.70;99.90;;;;;;5034834;28;20216;-75
2023/11/15 08:16:05;;;;;;;7.73;1.60;;;10.80;99.90;;;;;;5078795;28;20531;-76
2023/11/15 08:18:31;;;;;;;4.00;1.20;;;10.90;99.90;;;;;;5052889;28;20458;-76
2023/11/15 08:20:57;;;;;;;0.87;0.83;;;10.90;99.90;;;;;;5050654;28;20507;-76
2023/11/15 08:23:26;;;;;;;1.57;0.90;;;11.00;99.90;;;;;;5074810;28;20227;-76
2023/11/15 08:25:52;;;;;;;5.97;1.17;;;11.00;99.90;;;;;;5072600;28;20269;-76
2023/11/15 08:28:19;;;;;;;5.07;1.10;;;11.00;99.90;;;;;;5051781;28;20437;-76
2023/11/15 08:30:45;;;;;;;4.73;1.60;;;11.00;99.90;;;;;;5035593;28;20451;-76
2023/11/15 08:33:16;;;;;;;2.40;1.10;;;11.00;99.90;;;;;;5052431;28;20474;-75
2023/11/15 08:35:43;;;;;;;5.50;1.27;;;11.10;99.90;;;;;;5048090;28;20533;-76
2023/11/15 08:38:10;;;;;;;5.47;1.50;;;11.10;99.90;;;;;;5050110;28;20963;-76
2023/11/15 08:40:37;;;;;;;1.57;1.03;;;11.20;99.90;;;;;;5055782;28;20471;-76
2023/11/15 08:43:03;;;;;;;3.93;1.43;;;11.30;99.90;;;;;;5041818;28;20456;-76
2023/11/15 08:45:29;;;;;;;2.20;1.00;;;11.30;99.90;;;;;;5051498;28;20450;-76
2023/11/15 08:47:56;;;;;;;3.40;1.03;;;11.40;99.90;;;;;;5029855;28;20224;-77
2023/11/15 08:50:25;;;;;;;6.27;1.57;;;11.40;99.90;;;;;;5048333;28;20454;-76
2023/11/15 08:52:51;;;;;;;1.47;0.90;;;11.40;99.90;;;;;;5049642;28;20454;-76
2023/11/15 08:55:18;;;;;;;5.00;1.73;;;11.50;99.90;;;;;;5031824;28;20952;-75
2023/11/15 08:57:44;;;;;;;2.13;0.90;;;11.50;99.90;;;;;;5068341;28;20446;-76
2023/11/15 09:00:15;;;;;;;5.97;1.50;;;11.60;99.90;;;;;;5050329;28;20494;-75
2023/11/15 09:02:46;;;;;;;4.70;1.40;;;11.70;99.90;;;;;;5026507;28;20486;-76
2023/11/15 09:05:19;;;;;;;2.30;1.50;;;11.70;99.90;;;;;;5046322;28;21028;-75
2023/11/15 09:07:45;;;;;;;3.07;1.30;;;11.70;99.90;;;;;;5035270;28;20526;-76
2023/11/15 09:10:13;;;;;;;6.97;1.60;;;11.80;99.90;;;;;;5032687;28;20454;-76
2023/11/15 09:12:40;;;;;;;1.57;1.17;;;11.80;99.90;;;;;;5047366;28;20459;-75
2023/11/15 09:15:11;;;;;;;2.30;1.13;;;11.90;99.90;;;;;;5067794;28;20458;-77
2023/11/15 09:17:45;;;;;;;2.47;1.50;;;11.90;99.90;;;;;;5064484;28;20500;-76
2023/11/15 09:20:12;;;;;;;3.97;1.40;;;11.90;99.90;;;;;;5073291;28;20469;-76
2023/11/15 09:22:38;;;;;;;2.87;1.30;;;11.80;99.90;;;;;;5065096;28;20447;-76
2023/11/15 09:25:06;;;;;;;3.10;1.10;;;11.80;99.90;;;;;;5067930;28;21301;-76
2023/11/15 09:27:32;;;;;;;4.67;2.27;;;11.80;99.90;;;;;;5037148;28;20224;-76
2023/11/15 09:29:58;;;;;;;3.30;1.30;;;11.70;99.90;;;;;;5072242;28;20470;-76
2023/11/15 09:32:25;;;;;;;1.83;1.20;;;11.70;99.90;;;;;;5048281;28;20481;-76
2023/11/15 09:34:52;;;;;;;1.33;1.20;;;11.70;99.90;;;;;;5051031;28;20219;-76
2023/11/15 09:37:17;;;;;;;3.90;2.00;;;11.60;99.90;;;;;;5047752;28;20485;-76
2023/11/15 09:39:45;;;;;;;2.17;1.00;;;11.50;99.90;;;;;;5071271;28;20498;-76
2023/11/15 09:42:13;;;;;;;2.50;1.20;;;11.50;99.90;;;;;;5046000;28;20273;-76
2023/11/15 09:44:41;;;;;;;2.30;1.33;;;11.50;99.90;;;;;;5050071;28;20477;-76
2023/11/15 09:47:08;;;;;;;1.87;0.97;;;11.50;99.90;;;;;;5053757;28;20606;-76
2023/11/15 09:49:35;;;;;;;6.00;1.50;;;11.50;99.90;;;;;;5038090;28;20529;-76
2023/11/15 09:52:02;;;;;;;1.53;0.87;;;11.50;99.90;;;;;;5039578;28;20480;-76
2023/11/15 09:54:28;;;;;;;1.53;1.40;;;11.40;99.90;;;;;;5053652;28;20474;-76
2023/11/15 09:56:54;;;;;;;3.63;1.17;;;11.50;99.90;;;;;;5055398;28;20982;-76
2023/11/15 09:59:20;;;;;;;3.63;1.30;;;11.50;99.90;;;;;;5051337;28;20299;-76
2023/11/15 10:01:50;;;;;;;1.73;1.50;;;11.40;99.90;;;;;;5050416;28;20504;-76
2023/11/15 10:04:23;;;;;;;6.10;1.40;;;11.50;99.90;;;;;;5075188;28;20246;-76
2023/11/15 10:06:52;;;;;;;6.30;1.57;;;11.50;99.90;;;;;;5054006;28;20442;-76
2023/11/15 10:09:33;;;;;;;2.20;1.07;;;11.50;99.90;;;;;;5056430;28;20442;-76
2023/11/15 10:12:03;;;;;;;1.93;0.90;;;11.50;99.90;;;;;;5057743;28;20454;-76
2023/11/15 10:14:29;;;;;;;3.37;1.37;;;11.50;99.90;;;;;;5050492;28;20445;-77
2023/11/15 10:16:55;;;;;;;2.10;1.10;;;11.60;99.90;;;;;;5030522;28;20456;-76
2023/11/15 10:19:27;;;;;;;1.20;0.93;;;11.60;99.90;;;;;;5052953;28;20572;-76
2023/11/15 10:21:56;;;;;;;6.77;1.07;;;11.60;99.90;;;;;;5048500;28;20489;-76
2023/11/15 10:24:22;;;;;;;6.03;2.17;;;11.70;99.90;;;;;;5076185;28;20481;-76
2023/11/15 10:26:49;;;;;;;1.13;1.03;;;11.70;99.90;;;;;;5057376;28;20450;-76
2023/11/15 10:29:14;;;;;;;1.10;1.00;;;11.70;99.90;;;;;;5035066;28;20450;-76
2023/11/15 10:31:53;;;;;;;4.93;1.30;;;11.80;99.90;;;;;;5033333;28;20504;-76
2023/11/15 10:34:29;;;;;;;1.47;1.03;;;11.80;99.90;;;;;;5053272;28;20277;-76
2023/11/15 10:37:10;;;;;;;2.57;1.20;;;11.90;99.90;;;;;;5060441;28;20456;-77
2023/11/15 10:39:47;;;;;;;3.33;1.20;;;11.90;99.90;;;;;;5082259;28;20495;-76
2023/11/15 10:42:15;;;;;;;1.27;0.87;;;12.00;99.90;;;;;;5024495;28;20454;-75
2023/11/15 10:44:47;;;;;;;1.93;1.10;;;12.00;99.90;;;;;;5026610;28;20451;-76
2023/11/15 10:47:22;;;;;;;3.47;1.23;;;12.00;99.90;;;;;;5046159;28;20458;-76
2023/11/15 10:50:00;;;;;;;2.30;1.07;;;12.00;99.90;;;;;;5050514;28;20465;-76
2023/11/15 10:52:26;;;;;;;1.20;1.07;;;12.00;99.90;;;;;;5067952;28;20488;-76
2023/11/15 10:54:56;;;;;;;2.67;1.07;;;11.90;99.90;;;;;;5051877;28;20511;-76
2023/11/15 10:57:22;;;;;;;6.43;1.60;;;12.00;99.90;;;;;;5079901;28;20503;-76
2023/11/15 10:59:52;;;;;;;2.23;1.17;;;12.00;99.90;;;;;;5068092;28;20477;-76
2023/11/15 11:02:20;;;;;;;3.40;1.17;;;12.00;99.90;;;;;;5057370;28;20445;-76
2023/11/15 11:04:47;;;;;;;2.80;1.40;;;12.00;99.90;;;;;;5074228;28;20485;-77
2023/11/15 11:07:30;;;;;;;4.60;1.27;;;12.00;99.90;;;;;;5040603;28;20530;-75
2023/11/15 11:10:08;;;;;;;2.30;1.23;;;12.10;99.90;;;;;;5049897;28;20454;-76
2023/11/15 11:12:34;;;;;;;1.70;1.57;;;12.10;99.90;;;;;;5039217;28;20521;-76
2023/11/15 11:15:23;;;;;;;1.20;0.93;;;12.10;99.90;;;;;;5026868;28;20500;-76
2023/11/15 11:17:49;;;;;;;0.90;0.90;;;12.10;99.90;;;;;;5032765;28;20457;-76
2023/11/15 11:20:28;;;;;;;1.13;1.03;;;12.10;99.90;;;;;;5066176;28;20462;-75
2023/11/15 11:23:19;;;;;;;7.93;1.50;;;12.10;99.90;;;;;;5069281;28;20224;-76
2023/11/15 11:25:46;;;;;;;2.23;1.00;;;12.10;99.90;;;;;;5069444;28;20507;-76
2023/11/15 11:28:13;;;;;;;2.20;1.00;;;12.10;99.90;;;;;;5068158;28;20459;-77
2023/11/15 11:30:40;;;;;;;2.70;1.23;;;12.10;99.90;;;;;;5048543;28;20511;-76
2023/11/15 11:33:18;;;;;;;2.00;0.93;;;12.10;99.90;;;;;;5037788;28;20821;-76
2023/11/15 11:35:46;;;;;;;1.70;1.00;;;12.10;99.90;;;;;;5046606;28;21036;-76
2023/11/15 11:38:47;;;;;;;6.90;1.20;;;12.10;99.90;;;;;;5035055;28;20442;-76
2023/11/15 11:41:13;;;;;;;3.20;1.10;;;12.00;99.90;;;;;;4984372;28;20485;-76
2023/11/15 11:43:41;;;;;;;2.40;1.13;;;12.00;99.90;;;;;;5032413;28;20482;-76
2023/11/15 11:46:15;;;;;;;4.77;1.40;;;11.90;99.90;;;;;;5028373;28;20220;-76
2023/11/15 11:48:42;;;;;;;1.17;0.93;;;11.90;99.90;;;;;;5051847;28;20454;-77
2023/11/15 11:51:08;;;;;;;1.83;0.80;;;11.90;99.90;;;;;;5025903;28;20444;-75
2023/11/15 11:53:38;;;;;;;3.30;1.00;;;11.90;99.90;;;;;;5046828;28;20466;-76
2023/11/15 11:56:07;;;;;;;1.73;0.80;;;11.90;99.90;;;;;;5045990;28;20453;-76
2023/11/15 11:58:32;;;;;;;2.53;0.93;;;11.90;99.90;;;;;;5028416;28;20459;-76
2023/11/15 12:01:00;;;;;;;3.23;1.30;;;11.80;99.90;;;;;;5046909;28;20542;-76
2023/11/15 12:03:25;;;;;;;1.27;1.10;;;11.70;99.90;;;;;;5042796;28;20661;-76
2023/11/15 12:06:07;;;;;;;2.20;1.37;;;11.70;99.90;;;;;;5033352;28;20534;-76
2023/11/15 12:08:34;;;;;;;3.17;1.17;;;11.70;99.90;;;;;;5069815;28;20208;-76
2023/11/15 12:11:01;;;;;;;5.53;1.23;;;11.60;99.90;;;;;;5052675;28;20497;-77
2023/11/15 12:13:40;;;;;;;2.70;1.20;;;11.70;99.90;;;;;;5028838;28;20542;-76
2023/11/15 12:16:23;;;;;;;2.00;1.80;;;11.70;99.90;;;;;;5050887;28;20453;-76
2023/11/15 12:19:03;;;;;;;1.70;0.87;;;11.80;99.90;;;;;;5057134;28;20533;-76
2023/11/15 12:21:43;;;;;;;1.30;0.77;;;11.70;99.90;;;;;;5044797;28;20479;-76
2023/11/15 12:24:14;;;;;;;2.30;0.70;;;11.70;99.90;;;;;;5070768;28;20433;-76
2023/11/15 12:26:47;;;;;;;1.70;0.97;;;11.60;99.90;;;;;;5065810;28;20536;-76
2023/11/15 12:29:17;;;;;;;1.97;0.93;;;11.50;99.90;;;;;;5047547;28;20464;-76
2023/11/15 12:31:43;;;;;;;1.40;0.90;;;11.50;99.90;;;;;;5027999;28;20470;-77
2023/11/15 12:34:09;;;;;;;1.43;0.90;;;11.60;99.90;;;;;;5033506;28;20447;-76
2023/11/15 12:36:38;;;;;;;0.60;0.60;;;11.60;99.90;;;;;;5026923;28;20240;-76
2023/11/15 12:39:03;;;;;;;0.90;0.90;;;11.50;99.90;;;;;;5036434;28;20442;-76
2023/11/15 12:41:29;;;;;;;2.30;1.13;;;11.60;99.90;;;;;;5042628;28;20463;-77
2023/11/15 12:44:02;;;;;;;1.10;1.10;;;11.70;99.90;;;;;;5036008;28;20211;-76
2023/11/15 12:46:28;;;;;;;1.13;0.70;;;11.70;99.90;;;;;;5038905;28;20267;-76
2023/11/15 12:48:54;;;;;;;1.37;1.27;;;11.80;99.90;;;;;;5039022;28;20447;-76
2023/11/15 12:51:20;;;;;;;2.57;1.67;;;11.90;99.90;;;;;;5042341;28;20219;-76
2023/11/15 12:53:45;;;;;;;1.47;0.90;;;12.00;99.90;;;;;;5045113;28;20216;-77